createdAt,value
2022-10-23T00:03:26.547Z,6.97
2022-10-23T00:08:28.677Z,6.82
2022-10-23T00:13:31.007Z,6.85
2022-10-23T00:18:33.850Z,6.72
2022-10-23T00:23:36.109Z,6.70
2022-10-23T00:28:38.749Z,6.35
2022-10-23T00:33:42.053Z,6.40
2022-10-23T00:38:45.153Z,6.72
2022-10-23T00:44:01.615Z,7.15
2022-10-23T00:49:05.690Z,6.55
2022-10-23T00:54:23.542Z,7.05
2022-10-23T00:59:27.772Z,6.13
2022-10-23T01:04:30.978Z,6.60
2022-10-23T01:09:42.606Z,6.70
2022-10-23T01:15:03.163Z,6.50
2022-10-23T01:20:25.634Z,6.30
2022-10-23T01:25:52.410Z,6.50
2022-10-23T01:30:58.364Z,7.00
2022-10-23T01:36:12.593Z,6.93
2022-10-23T01:41:21.491Z,6.82
2022-10-23T01:46:26.300Z,6.93
2022-10-23T01:51:31.336Z,6.97
2022-10-23T01:56:42.246Z,8.02
2022-10-23T02:01:48.849Z,7.03
2022-10-23T02:06:51.450Z,6.47
2022-10-23T02:12:25.253Z,6.95
2022-10-23T02:18:12.120Z,6.03
2022-10-23T02:23:28.053Z,6.63
2022-10-23T02:28:40.657Z,6.68
2022-10-23T02:33:47.251Z,7.63
2022-10-23T02:38:49.734Z,6.25
2022-10-23T02:44:10.358Z,5.95
2022-10-23T02:49:20.505Z,6.43
2022-10-23T02:54:42.035Z,8.48
2022-10-23T02:59:47.702Z,7.88
2022-10-23T03:04:54.148Z,7.25
2022-10-23T03:09:56.607Z,8.25
2022-10-23T03:14:58.967Z,7.28
2022-10-23T03:20:01.141Z,7.97
2022-10-23T03:25:03.658Z,5.32
2022-10-23T03:30:08.309Z,5.35
2022-10-23T03:35:13.121Z,5.38
2022-10-23T03:40:15.562Z,5.50
2022-10-23T03:45:17.902Z,5.53
2022-10-23T03:50:20.677Z,5.78
2022-10-23T03:55:23.562Z,5.20
2022-10-23T04:00:27.932Z,5.53
2022-10-23T04:05:30.370Z,5.28
2022-10-23T04:10:34.117Z,4.90
2022-10-23T04:15:36.682Z,5.60
2022-10-23T04:20:39.152Z,6.20
2022-10-23T04:25:41.585Z,6.13
2022-10-23T04:30:44.210Z,6.65
2022-10-23T04:35:47.914Z,5.93
2022-10-23T04:40:50.271Z,10.40
2022-10-23T04:45:56.463Z,15.73
2022-10-23T04:51:02.158Z,14.18
2022-10-23T04:56:24.502Z,6.85
2022-10-23T05:01:36.106Z,6.38
2022-10-23T05:06:41.193Z,6.50
2022-10-23T05:12:06.481Z,7.00
2022-10-23T05:17:14.308Z,6.75
2022-10-23T05:22:18.786Z,6.18
2022-10-23T05:27:23.694Z,6.18
2022-10-23T05:32:31.640Z,6.22
2022-10-23T05:37:37.386Z,7.22
2022-10-23T05:42:54.995Z,6.60
2022-10-23T05:48:17.038Z,6.82
2022-10-23T05:53:56.065Z,6.93
2022-10-23T05:59:10.514Z,6.70
2022-10-23T06:04:30.388Z,7.68
2022-10-23T06:09:53.453Z,7.95
2022-10-23T06:14:56.886Z,7.10
2022-10-23T06:20:16.139Z,6.72
2022-10-23T06:25:33.354Z,7.25
2022-10-23T06:30:40.298Z,7.60
2022-10-23T06:35:46.127Z,8.00
2022-10-23T06:53:28.643Z,7.70
2022-10-23T06:58:45.223Z,8.90
2022-10-23T07:04:43.055Z,7.82
2022-10-23T07:09:53.102Z,7.85
2022-10-23T07:14:59.875Z,7.05
2022-10-23T07:20:02.532Z,6.63
2022-10-23T07:25:05.726Z,7.30
2022-10-23T07:30:13.946Z,6.80
2022-10-23T07:35:24.936Z,6.72
2022-10-23T07:40:38.773Z,6.20
2022-10-23T07:45:46.756Z,6.25
2022-10-23T07:51:04.180Z,5.40
2022-10-23T07:56:18.745Z,6.10
2022-10-23T08:01:56.862Z,6.00
2022-10-23T08:07:05.840Z,4.63
2022-10-23T08:12:15.471Z,4.15
2022-10-23T08:17:19.005Z,4.18
2022-10-23T08:22:37.475Z,4.05
2022-10-23T08:27:40.488Z,3.70
2022-10-23T08:32:43.161Z,3.60
2022-10-23T08:37:47.665Z,3.00
2022-10-23T08:43:22.169Z,4.32
2022-10-23T08:48:51.754Z,3.15
2022-10-23T08:54:55.892Z,2.92
2022-10-23T09:00:12.695Z,2.85
2022-10-23T09:05:25.467Z,2.75
2022-10-23T09:10:51.531Z,3.10
2022-10-23T09:16:03.972Z,3.10
2022-10-23T09:21:10.381Z,3.40
2022-10-23T09:26:18.495Z,2.88
2022-10-23T09:31:21.160Z,2.80
2022-10-23T09:36:29.479Z,2.47
2022-10-23T09:41:37.678Z,2.35
2022-10-23T09:52:08.683Z,1.90
2022-10-23T09:57:32.394Z,1.40
2022-10-23T10:02:36.892Z,1.80
2022-10-23T10:08:04.182Z,2.15
2022-10-23T10:13:34.822Z,1.35
2022-10-23T10:18:47.877Z,1.90
2022-10-23T10:24:12.836Z,1.92
2022-10-23T10:29:52.497Z,1.40
2022-10-23T10:35:19.516Z,1.63
2022-10-23T10:40:35.719Z,1.35
2022-10-23T10:45:52.783Z,1.70
2022-10-23T10:50:59.389Z,1.48
2022-10-23T10:56:19.374Z,1.40
2022-10-23T11:01:28.374Z,1.42
2022-10-23T11:06:36.473Z,1.50
2022-10-23T11:11:41.192Z,1.70
2022-10-23T11:17:10.462Z,1.60
2022-10-23T11:22:34.603Z,1.88
2022-10-23T11:27:42.993Z,1.50
2022-10-23T11:33:17.306Z,1.80
2022-10-23T11:38:30.240Z,2.40
2022-10-23T11:43:55.501Z,2.00
2022-10-23T11:48:58.791Z,1.95
2022-10-23T11:54:16.433Z,1.80
2022-10-23T11:59:29.534Z,1.83
2022-10-23T12:04:45.867Z,1.65
2022-10-23T12:10:01.669Z,1.50
2022-10-23T12:15:20.086Z,1.40
2022-10-23T12:20:39.524Z,1.20
2022-10-23T12:25:57.980Z,1.40
2022-10-23T12:31:31.664Z,1.67
2022-10-23T12:36:45.758Z,1.40
2022-10-23T12:41:48.098Z,1.70
2022-10-23T12:46:54.706Z,1.77
2022-10-23T12:52:04.784Z,1.42
2022-10-23T12:57:26.413Z,1.50
2022-10-23T13:02:33.155Z,1.85
2022-10-23T13:07:44.795Z,1.60
2022-10-23T13:13:02.983Z,1.85
2022-10-23T13:18:07.509Z,2.08
2022-10-23T13:23:33.132Z,1.92
2022-10-23T13:28:43.177Z,2.00
2022-10-23T13:34:09.975Z,2.80
2022-10-23T13:39:12.769Z,2.00
2022-10-23T13:44:17.460Z,19.65
2022-10-23T13:49:20.470Z,8.13
2022-10-23T13:59:30.386Z,5.68
2022-10-23T14:04:32.611Z,2.20
2022-10-23T14:09:34.750Z,3.72
2022-10-23T14:14:37.208Z,5.03
2022-10-23T14:19:39.567Z,10.48
2022-10-23T14:24:41.845Z,7.25
